createdAt,value
2018-10-02T00:01:41.679Z,10.63
2018-10-02T00:04:10.085Z,7.20
2018-10-02T00:06:38.516Z,11.33
2018-10-02T00:09:09.175Z,9.97
2018-10-02T00:11:42.993Z,12.47
2018-10-02T00:14:16.602Z,7.90
2018-10-02T00:16:45.201Z,9.87
2018-10-02T00:19:13.661Z,17.17
2018-10-02T00:21:42.149Z,7.70
2018-10-02T00:24:10.849Z,13.53
2018-10-02T00:26:39.493Z,20.57
2018-10-02T00:29:07.986Z,10.07
2018-10-02T00:31:36.705Z,12.97
2018-10-02T00:34:05.126Z,7.60
2018-10-02T00:36:33.596Z,14.33
2018-10-02T00:39:02.038Z,8.67
2018-10-02T00:41:30.537Z,7.43
2018-10-02T00:43:59.053Z,12.13
2018-10-02T00:46:27.489Z,16.37
2018-10-02T00:48:55.928Z,8.53
2018-10-02T00:51:24.637Z,11.40
2018-10-02T00:53:53.121Z,15.43
2018-10-02T00:56:21.602Z,9.10
2018-10-02T00:58:50.186Z,13.13
2018-10-02T01:01:18.689Z,12.73
2018-10-02T01:03:47.257Z,13.97
2018-10-02T01:06:16.176Z,5.30
2018-10-02T01:08:44.625Z,9.80
2018-10-02T01:11:13.046Z,12.20
2018-10-02T01:13:42.013Z,12.30
2018-10-02T01:16:10.481Z,9.83
2018-10-02T01:18:38.947Z,13.77
2018-10-02T01:21:07.367Z,9.70
2018-10-02T01:23:35.845Z,11.07
2018-10-02T01:26:04.366Z,17.80
2018-10-02T01:28:32.872Z,12.90
2018-10-02T01:31:01.398Z,13.20
2018-10-02T01:33:29.917Z,14.37
2018-10-02T01:35:58.337Z,13.07
2018-10-02T01:38:26.749Z,13.33
2018-10-02T01:40:55.243Z,11.50
2018-10-02T01:43:23.705Z,15.77
2018-10-02T01:45:52.142Z,14.27
2018-10-02T01:48:20.632Z,22.37
2018-10-02T01:50:49.066Z,19.20
2018-10-02T01:53:17.618Z,13.93
2018-10-02T01:55:46.193Z,17.77
2018-10-02T01:58:14.695Z,18.83
2018-10-02T02:00:43.259Z,14.70
2018-10-02T02:03:11.693Z,13.70
2018-10-02T02:05:40.203Z,13.33
2018-10-02T02:08:08.718Z,13.40
2018-10-02T02:10:37.215Z,17.13
2018-10-02T02:13:05.716Z,20.30
2018-10-02T02:15:34.130Z,16.20
2018-10-02T02:18:02.945Z,18.07
2018-10-02T02:20:31.402Z,13.90
2018-10-02T02:22:59.897Z,15.83
2018-10-02T02:25:28.391Z,15.50
2018-10-02T02:27:56.847Z,16.60
2018-10-02T02:30:25.305Z,18.43
2018-10-02T02:32:53.842Z,14.83
2018-10-02T02:35:22.903Z,11.23
2018-10-02T02:37:51.359Z,13.73
2018-10-02T02:40:19.821Z,14.13
2018-10-02T02:42:48.361Z,13.03
2018-10-02T02:45:16.825Z,9.83
2018-10-02T02:47:51.121Z,15.13
2018-10-02T02:50:24.756Z,13.50
2018-10-02T02:52:57.158Z,12.77
2018-10-02T02:55:27.654Z,11.63
2018-10-02T02:57:56.153Z,11.73
2018-10-02T03:00:24.860Z,15.57
2018-10-02T03:02:53.343Z,11.83
2018-10-02T03:05:23.783Z,18.33
2018-10-02T03:07:52.341Z,14.57
2018-10-02T03:10:20.891Z,16.47
2018-10-02T03:12:49.413Z,15.33
2018-10-02T03:15:17.884Z,15.60
2018-10-02T03:17:46.298Z,17.40
2018-10-02T03:20:14.746Z,12.80
2018-10-02T03:22:43.260Z,14.00
2018-10-02T03:25:11.962Z,17.87
2018-10-02T03:27:40.423Z,19.17
2018-10-02T03:30:08.928Z,11.90
2018-10-02T03:32:37.377Z,14.13
2018-10-02T03:35:06.021Z,12.60
2018-10-02T03:37:34.432Z,14.20
2018-10-02T03:40:03.086Z,12.83
2018-10-02T04:16:46.892Z,13.70
2018-10-02T04:19:15.634Z,19.47
2018-10-02T04:21:44.130Z,19.87
2018-10-02T04:24:13.111Z,20.03
2018-10-02T04:26:41.585Z,20.87
2018-10-02T04:29:10.018Z,16.03
2018-10-02T04:31:38.931Z,14.33
2018-10-02T04:34:07.584Z,17.80
2018-10-02T04:36:36.067Z,14.77
2018-10-02T04:39:06.273Z,20.50
2018-10-02T04:41:34.771Z,14.40
2018-10-02T04:44:03.253Z,10.30
2018-10-02T04:46:31.808Z,13.20
2018-10-02T04:49:00.280Z,14.03
2018-10-02T04:51:28.776Z,10.60
2018-10-02T04:53:57.270Z,12.13
2018-10-02T04:56:25.802Z,15.50
2018-10-02T04:58:54.307Z,14.37
2018-10-02T05:01:22.861Z,14.73
2018-10-02T05:03:51.368Z,13.93
2018-10-02T05:06:19.965Z,14.80
2018-10-02T05:08:48.510Z,14.63
2018-10-02T05:11:17.120Z,7.80
2018-10-02T05:13:45.610Z,13.40
2018-10-02T05:16:14.123Z,17.87
2018-10-02T05:18:42.598Z,10.23
2018-10-02T05:21:11.083Z,10.13
2018-10-02T05:23:39.687Z,8.70
2018-10-02T05:26:08.158Z,11.77
2018-10-02T05:28:36.769Z,9.57
2018-10-02T05:31:05.290Z,11.73
2018-10-02T05:33:33.780Z,12.23
2018-10-02T05:36:02.292Z,11.57
2018-10-02T05:38:31.142Z,9.67
2018-10-02T05:40:59.595Z,8.53
2018-10-02T05:43:28.184Z,10.07
2018-10-02T05:45:57.407Z,17.10
2018-10-02T05:48:27.038Z,9.23
2018-10-02T05:50:55.607Z,11.40
2018-10-02T05:53:25.341Z,11.30
2018-10-02T05:55:53.889Z,12.40
2018-10-02T05:58:22.481Z,13.67
2018-10-02T06:00:51.182Z,10.23
2018-10-02T06:03:19.765Z,10.23
2018-10-02T06:05:48.364Z,13.47
2018-10-02T06:08:17.611Z,12.97
2018-10-02T06:10:46.062Z,7.23
2018-10-02T06:13:14.850Z,7.47
2018-10-02T06:15:43.382Z,10.90
2018-10-02T06:18:11.879Z,9.97
2018-10-02T06:20:40.475Z,15.37
2018-10-02T06:23:08.970Z,12.03
2018-10-02T06:25:37.474Z,19.20
2018-10-02T06:28:06.001Z,17.93
2018-10-02T06:30:34.535Z,15.50
2018-10-02T06:33:03.019Z,10.63
2018-10-02T06:35:31.711Z,11.00
2018-10-02T06:38:00.358Z,13.83
2018-10-02T06:40:29.092Z,10.33
2018-10-02T06:42:57.614Z,10.67
2018-10-02T06:45:26.161Z,10.43
2018-10-02T06:47:54.665Z,13.30
2018-10-02T06:50:23.206Z,17.17
2018-10-02T06:52:51.741Z,15.97
2018-10-02T06:55:20.523Z,13.37
2018-10-02T06:57:49.022Z,8.97
2018-10-02T07:00:17.684Z,12.57
2018-10-02T07:02:46.226Z,14.70
2018-10-02T07:05:14.806Z,20.30
2018-10-02T07:07:43.372Z,13.53
2018-10-02T07:10:12.285Z,7.03
2018-10-02T07:12:40.833Z,9.03
2018-10-02T07:15:10.606Z,14.97
2018-10-02T07:17:39.170Z,15.63
2018-10-02T07:20:07.593Z,18.70
2018-10-02T07:22:36.094Z,14.13
2018-10-02T07:25:04.694Z,16.53
2018-10-02T07:27:33.273Z,9.53
2018-10-02T07:30:01.923Z,14.80
2018-10-02T07:32:30.917Z,11.07
2018-10-02T07:34:59.656Z,11.13
2018-10-02T07:37:28.175Z,11.73
2018-10-02T07:39:56.765Z,14.53
2018-10-02T07:42:25.405Z,15.67
2018-10-02T07:44:54.035Z,23.87
2018-10-02T07:47:22.648Z,20.00
2018-10-02T07:49:51.782Z,17.23
2018-10-02T07:52:21.528Z,14.77
2018-10-02T07:54:51.497Z,15.47
2018-10-02T07:57:20.152Z,18.30
2018-10-02T07:59:56.823Z,19.27
2018-10-02T08:02:25.414Z,16.73
2018-10-02T08:04:53.857Z,13.60
2018-10-02T08:07:29.575Z,12.90
2018-10-02T08:09:58.477Z,11.37
2018-10-02T08:12:27.275Z,15.60
2018-10-02T08:14:56.264Z,16.57
2018-10-02T08:17:25.243Z,17.93
2018-10-02T08:19:53.880Z,13.83
2018-10-02T08:22:22.434Z,13.70
2018-10-02T08:24:50.924Z,20.80
2018-10-02T08:27:19.501Z,18.50
2018-10-02T08:29:48.047Z,13.53
2018-10-02T08:32:17.157Z,20.13
2018-10-02T08:34:45.744Z,12.90
2018-10-02T08:37:14.226Z,15.03
2018-10-02T08:39:42.758Z,20.20
2018-10-02T08:42:11.589Z,13.20
2018-10-02T08:44:40.208Z,12.67
2018-10-02T08:47:09.572Z,14.23
2018-10-02T08:49:38.112Z,16.63
2018-10-02T08:52:06.783Z,11.40
2018-10-02T08:54:35.295Z,14.60
2018-10-02T08:57:03.761Z,19.87
2018-10-02T08:59:32.263Z,19.60
2018-10-02T09:02:00.751Z,20.13
2018-10-02T09:04:29.286Z,15.57
2018-10-02T09:06:58.321Z,17.17
2018-10-02T09:09:26.880Z,25.07
2018-10-02T09:11:55.365Z,16.37
2018-10-02T09:14:24.149Z,16.97
2018-10-02T09:16:52.723Z,13.40
2018-10-02T09:19:21.990Z,14.93
2018-10-02T09:21:51.262Z,15.23
2018-10-02T09:24:19.794Z,15.83
2018-10-02T09:26:48.281Z,13.50
2018-10-02T09:29:16.782Z,14.67
2018-10-02T09:31:50.394Z,15.97
2018-10-02T09:34:24.336Z,13.77
2018-10-02T09:36:58.063Z,14.63
2018-10-02T09:39:31.658Z,11.93
2018-10-02T09:42:05.302Z,12.70
2018-10-02T09:44:35.540Z,10.77
2018-10-02T09:47:04.792Z,12.80
2018-10-02T09:49:33.344Z,15.83
2018-10-02T09:52:01.890Z,13.60
2018-10-02T09:54:30.460Z,11.50
2018-10-02T09:56:59.049Z,11.37
2018-10-02T09:59:27.533Z,14.33
2018-10-02T10:02:01.512Z,11.80
2018-10-02T10:04:29.973Z,14.10
2018-10-02T10:06:58.489Z,14.63
2018-10-02T10:09:27.073Z,16.87
2018-10-02T10:11:55.584Z,12.50
2018-10-02T10:14:24.707Z,14.17
2018-10-02T10:16:53.284Z,11.83
2018-10-02T10:19:22.259Z,14.47
2018-10-02T10:21:51.047Z,15.67
2018-10-02T10:24:19.591Z,13.87
2018-10-02T10:26:48.493Z,14.83
2018-10-02T10:29:17.233Z,22.87
2018-10-02T10:31:45.707Z,21.73
2018-10-02T10:34:15.478Z,16.00
2018-10-02T10:36:43.990Z,15.97
2018-10-02T10:39:12.494Z,27.23
2018-10-02T10:41:41.677Z,18.03
2018-10-02T10:44:10.187Z,23.17
2018-10-02T10:46:38.741Z,22.40
2018-10-02T10:49:08.435Z,25.77
2018-10-02T10:51:36.959Z,23.43
2018-10-02T10:54:06.942Z,32.17
2018-10-02T10:56:36.044Z,25.03
2018-10-02T10:59:05.965Z,26.53
2018-10-02T11:01:34.552Z,26.53
2018-10-02T11:04:04.477Z,33.37
2018-10-02T11:06:33.916Z,30.23
2018-10-02T11:09:02.490Z,28.40
2018-10-02T11:11:30.949Z,33.97
2018-10-02T11:13:59.545Z,25.13
2018-10-02T11:16:28.728Z,24.80
2018-10-02T11:18:57.419Z,24.53
2018-10-02T11:21:25.923Z,18.17
2018-10-02T11:23:54.384Z,23.00
2018-10-02T11:26:24.187Z,21.97
2018-10-02T11:28:52.799Z,27.50
2018-10-02T11:31:22.635Z,20.70
2018-10-02T11:33:51.415Z,18.13
2018-10-02T11:36:20.102Z,23.50
2018-10-02T11:38:49.924Z,23.30
2018-10-02T11:41:18.546Z,21.90
2018-10-02T11:43:47.231Z,20.30
2018-10-02T11:46:15.638Z,25.30
2018-10-02T11:48:44.242Z,25.43
2018-10-02T11:51:13.376Z,25.87
2018-10-02T11:53:42.165Z,23.33
2018-10-02T11:56:10.793Z,17.20
2018-10-02T11:58:39.277Z,16.73
2018-10-02T12:01:08.344Z,23.30
2018-10-02T12:03:36.781Z,25.33
2018-10-02T12:06:06.388Z,18.50
2018-10-02T12:08:35.221Z,24.00
2018-10-02T12:11:04.173Z,20.40
2018-10-02T12:13:32.848Z,15.57
2018-10-02T12:16:01.331Z,22.27
2018-10-02T12:18:29.939Z,27.47
2018-10-02T12:20:58.564Z,23.90
2018-10-02T12:23:27.099Z,20.63
2018-10-02T12:25:55.940Z,20.50
2018-10-02T12:28:24.482Z,24.80
2018-10-02T12:30:53.032Z,15.87
2018-10-02T12:33:21.838Z,25.00
2018-10-02T12:35:50.452Z,14.33
2018-10-02T12:38:19.059Z,15.93
2018-10-02T12:40:47.551Z,13.83
2018-10-02T12:43:16.056Z,11.33
2018-10-02T12:45:44.653Z,11.47
2018-10-02T12:48:13.690Z,11.10
2018-10-02T12:50:42.308Z,8.47
2018-10-02T12:53:10.933Z,11.83
2018-10-02T12:55:39.411Z,7.40
2018-10-02T12:58:07.911Z,8.00
2018-10-02T13:00:37.371Z,9.67
2018-10-02T13:03:06.023Z,5.97
2018-10-02T13:05:34.660Z,12.97
2018-10-02T13:08:03.798Z,11.90
2018-10-02T13:10:32.406Z,8.67
2018-10-02T13:13:01.267Z,7.37
2018-10-02T13:15:30.611Z,8.27
2018-10-02T13:17:59.341Z,3.83
2018-10-02T13:20:27.979Z,6.17
2018-10-02T13:22:56.756Z,7.87
2018-10-02T13:25:25.458Z,9.27
2018-10-02T13:27:53.877Z,10.23
2018-10-02T13:30:22.408Z,9.37
2018-10-02T13:32:51.024Z,7.13
2018-10-02T13:35:19.630Z,8.60
2018-10-02T13:37:48.485Z,9.33
2018-10-02T13:40:18.407Z,6.33
2018-10-02T13:42:50.643Z,6.03
2018-10-02T13:45:19.290Z,9.83
2018-10-02T13:47:48.835Z,7.23
2018-10-02T13:50:17.816Z,6.37
2018-10-02T13:52:46.527Z,5.90
2018-10-02T13:55:15.636Z,9.57
2018-10-02T13:57:44.324Z,5.60
2018-10-02T14:00:12.952Z,9.37
2018-10-02T14:02:41.639Z,6.57
2018-10-02T14:05:10.528Z,7.63
2018-10-02T14:07:39.035Z,10.43
2018-10-02T14:10:07.568Z,6.80
2018-10-02T14:12:36.093Z,7.83
2018-10-02T14:15:05.379Z,9.07
2018-10-02T14:17:34.223Z,8.77
2018-10-02T14:20:06.287Z,7.33
2018-10-02T14:22:36.253Z,9.20
2018-10-02T14:25:05.035Z,9.10
2018-10-02T14:27:33.571Z,7.97
2018-10-02T14:30:02.074Z,5.60
2018-10-02T14:32:32.557Z,8.73
2018-10-02T14:35:01.119Z,7.50
2018-10-02T14:37:30.110Z,7.07
2018-10-02T14:39:58.980Z,6.77
2018-10-02T14:42:27.573Z,6.73
2018-10-02T14:44:57.200Z,9.13
2018-10-02T14:47:25.778Z,6.77
2018-10-02T14:49:54.917Z,11.93
2018-10-02T14:52:23.703Z,6.87
2018-10-02T14:54:52.379Z,4.07
2018-10-02T14:57:23.002Z,7.97
2018-10-02T14:59:54.717Z,11.80
2018-10-02T15:02:23.459Z,6.17
2018-10-02T15:04:52.405Z,19.00
2018-10-02T15:07:21.565Z,9.67
2018-10-02T15:09:50.646Z,9.00
2018-10-02T15:12:19.526Z,6.97
2018-10-02T15:14:48.442Z,8.30
2018-10-02T15:17:17.251Z,11.77
2018-10-02T15:19:45.769Z,6.00
2018-10-02T15:22:14.475Z,9.13
2018-10-02T15:24:43.067Z,8.37
2018-10-02T15:27:11.611Z,8.77
2018-10-02T15:29:40.346Z,11.10
2018-10-02T15:32:08.891Z,6.53
2018-10-02T15:34:37.848Z,8.97
2018-10-02T15:37:07.427Z,10.67
2018-10-02T15:39:36.188Z,6.50
2018-10-02T15:42:05.290Z,8.03
2018-10-02T15:44:34.021Z,9.00
2018-10-02T15:47:03.071Z,10.30
2018-10-02T15:49:31.639Z,12.97
2018-10-02T15:52:00.929Z,8.63
2018-10-02T15:54:29.428Z,6.13
2018-10-02T15:56:58.159Z,7.27
2018-10-02T15:59:26.667Z,12.07
2018-10-02T16:01:55.567Z,9.13
2018-10-02T16:04:24.164Z,12.80
2018-10-02T16:06:52.950Z,9.20
2018-10-02T16:09:26.346Z,12.57
2018-10-02T16:11:55.646Z,8.73
2018-10-02T16:14:29.194Z,6.57
2018-10-02T16:16:58.879Z,12.73
2018-10-02T16:19:27.437Z,12.13
2018-10-02T16:21:56.326Z,7.33
2018-10-02T16:24:26.755Z,7.20
2018-10-02T16:26:55.374Z,7.63
2018-10-02T16:29:24.558Z,7.13
2018-10-02T16:31:53.160Z,10.80
2018-10-02T16:34:21.656Z,8.57
2018-10-02T16:36:50.573Z,6.23
2018-10-02T16:39:22.263Z,8.13
2018-10-02T16:41:50.741Z,9.33
2018-10-02T16:44:20.288Z,15.17
2018-10-02T16:46:49.246Z,11.83
2018-10-02T16:49:17.886Z,11.73
2018-10-02T16:51:46.671Z,11.07
2018-10-02T16:54:15.418Z,11.63
2018-10-02T16:56:44.698Z,12.00
2018-10-02T16:59:13.235Z,14.87
2018-10-02T17:01:41.709Z,10.77
2018-10-02T17:04:10.270Z,9.13
2018-10-02T17:06:39.599Z,12.10
2018-10-02T17:09:08.741Z,6.10
2018-10-02T17:11:37.364Z,9.87
2018-10-02T17:14:05.852Z,9.07
2018-10-02T17:16:34.327Z,11.70
2018-10-02T17:19:02.952Z,14.03
2018-10-02T17:21:31.446Z,12.50
2018-10-02T17:24:01.089Z,13.40
2018-10-02T17:26:29.769Z,12.20
2018-10-02T18:55:42.747Z,13.90
2018-10-02T18:58:11.353Z,13.33
2018-10-02T19:00:40.581Z,14.47
2018-10-02T19:03:09.178Z,18.27
2018-10-02T19:05:37.693Z,15.40
2018-10-02T19:08:07.678Z,14.37
2018-10-02T19:10:36.234Z,12.63
2018-10-02T19:13:04.894Z,13.93
2018-10-02T19:15:39.225Z,13.97
2018-10-02T19:18:07.793Z,13.27
2018-10-02T19:20:41.990Z,18.90
2018-10-02T19:23:10.566Z,12.40
2018-10-02T19:25:44.487Z,11.10
2018-10-02T19:28:13.371Z,11.53
2018-10-02T19:30:47.403Z,16.27
2018-10-02T19:33:15.934Z,15.27
2018-10-02T19:35:44.773Z,12.87
2018-10-02T19:38:20.146Z,10.00
2018-10-02T19:40:48.924Z,7.27
2018-10-02T19:43:17.672Z,14.93
2018-10-02T19:45:51.569Z,15.63
2018-10-02T19:48:20.208Z,11.57
2018-10-02T19:50:49.362Z,13.37
2018-10-02T19:53:17.975Z,13.10
2018-10-02T19:55:46.569Z,13.00
2018-10-02T19:58:15.257Z,11.87
2018-10-02T20:00:43.951Z,12.63
2018-10-02T20:03:12.439Z,16.70
2018-10-02T20:05:41.198Z,16.63
2018-10-02T20:08:09.910Z,11.97
2018-10-02T20:10:51.015Z,12.67
2018-10-02T20:13:20.026Z,14.43
2018-10-02T20:15:48.479Z,18.20
2018-10-02T20:18:17.009Z,17.00
2018-10-02T20:20:45.691Z,12.40
2018-10-02T20:23:14.474Z,13.87
2018-10-02T20:25:43.144Z,17.90
2018-10-02T20:28:11.724Z,14.23
2018-10-02T20:30:40.324Z,17.17
2018-10-02T20:33:09.498Z,15.30
2018-10-02T20:35:38.169Z,14.93
2018-10-02T20:38:07.030Z,16.93
2018-10-02T20:40:35.547Z,12.20
2018-10-02T20:43:04.170Z,16.27
2018-10-02T20:45:32.723Z,21.33
2018-10-02T20:48:01.746Z,22.83
2018-10-02T20:50:30.238Z,15.63
2018-10-02T20:52:58.752Z,20.23
2018-10-02T20:55:27.247Z,19.80
2018-10-02T20:57:55.722Z,20.93
2018-10-02T21:00:24.245Z,15.33
2018-10-02T21:02:52.984Z,18.13
2018-10-02T21:05:21.879Z,16.73
2018-10-02T21:07:50.350Z,22.30
2018-10-02T21:10:18.940Z,14.87
2018-10-02T21:12:47.538Z,14.83
2018-10-02T21:15:16.178Z,13.20
2018-10-02T21:17:44.697Z,14.00
2018-10-02T21:20:13.280Z,20.27
2018-10-02T21:22:41.959Z,12.47
2018-10-02T21:25:10.534Z,12.50
2018-10-02T21:27:39.133Z,17.63
2018-10-02T21:30:07.648Z,13.20
2018-10-02T21:32:36.154Z,21.80
2018-10-02T21:35:04.716Z,21.07
2018-10-02T21:37:33.245Z,19.13
2018-10-02T21:40:01.981Z,13.57
2018-10-02T21:42:30.475Z,23.50
2018-10-02T21:44:59.222Z,17.50
2018-10-02T21:47:27.802Z,16.87
2018-10-02T21:49:56.352Z,14.20
2018-10-02T21:52:24.868Z,13.13
2018-10-02T21:54:53.347Z,15.63
2018-10-02T21:57:21.818Z,18.07
2018-10-02T21:59:50.385Z,21.40
2018-10-02T22:02:18.906Z,18.80
2018-10-02T22:04:47.372Z,16.37
2018-10-02T22:07:15.865Z,12.00
2018-10-02T22:09:44.389Z,17.03
2018-10-02T22:12:12.895Z,22.33
2018-10-02T22:14:41.425Z,15.70
2018-10-02T22:17:10.824Z,25.03
2018-10-02T22:19:39.559Z,21.30
2018-10-02T22:22:08.053Z,15.30
2018-10-02T22:24:36.502Z,13.03
2018-10-02T22:27:05.081Z,14.63
2018-10-02T22:29:34.501Z,11.73
2018-10-02T22:32:03.031Z,24.47
2018-10-02T22:34:31.503Z,17.10
2018-10-02T22:37:00.127Z,20.23
2018-10-02T22:39:29.242Z,17.20
2018-10-02T22:41:57.777Z,14.10
2018-10-02T22:44:26.227Z,15.50
2018-10-02T22:46:54.715Z,20.83
2018-10-02T22:49:23.174Z,14.67
2018-10-02T22:51:51.698Z,22.73
2018-10-02T22:54:20.147Z,14.87
2018-10-02T22:56:48.689Z,14.73
2018-10-02T22:59:17.265Z,22.60
2018-10-02T23:01:45.686Z,16.80
2018-10-02T23:04:14.169Z,15.10
2018-10-02T23:06:43.129Z,21.93
2018-10-02T23:09:12.802Z,17.13
2018-10-02T23:11:41.398Z,21.03
2018-10-02T23:14:09.966Z,18.60
2018-10-02T23:16:38.395Z,19.13
2018-10-02T23:19:07.183Z,21.10
2018-10-02T23:21:35.641Z,22.87
2018-10-02T23:24:04.172Z,16.80
2018-10-02T23:26:33.704Z,16.50
2018-10-02T23:29:02.138Z,28.40
2018-10-02T23:31:30.605Z,18.37
2018-10-02T23:33:59.191Z,22.67
2018-10-02T23:36:27.705Z,23.70
2018-10-02T23:38:56.202Z,16.93
2018-10-02T23:41:24.706Z,22.57
2018-10-02T23:43:53.328Z,26.00
2018-10-02T23:46:21.812Z,16.47
2018-10-02T23:48:50.276Z,20.23
2018-10-02T23:51:18.990Z,20.43
2018-10-02T23:53:47.417Z,20.43
2018-10-02T23:56:15.822Z,22.73
2018-10-02T23:58:44.629Z,17.03
